Allenton, Wisconsin
Current Conditions -  °F | °C
As of 9:30 AM on Saturday 20 Dec 2014 (Local Time) from KETB Reporting Station
Overcast Overcast  
Wind Chill: 28°   Ceiling: 7500
Heat Index: 28°   Visibility: 10mi
Dew Point: 21°   Wind: 0mph
Humidity: 74%   Direction: NA
Pressure: 30.26"   Gusts: NA
Location:  43.42°N, 88.34°W
Report Text: KETB 201530Z AUTO 00000KT 10SM OVC075 M02/M06 A3026 RMK AO2
Loading
Personal Weather Stations






























Interactive Weather Map New forecast layout! Learn more

10-Day Weather Forecast

Advertisements
Track Severe Weather on mobile